KMMT/MMT METAR and TAF weather

Enter ICAO airport designator
Station Type Date Time Source
KMMT METAR 2022/06/27 06:56 UTC NOAA

KMMT 270656Z AUTO 00000KT 10SM OVC160 24/21 A3008 RMK AO2 SLP186 T02360211 $


Station Type Date Time Source
KMMT Decoded METAR 2022/06/27 06:56 UTC NOAA

McEntire Air National Guard Weather Facility Base, SC, United States (KMMT) 33-55N 080-48W
Jun 27, 2022 - 02:56 AM EDT / 2022.06.27 0656 UTC
Wind: Calm:0
Visibility: 10 mile(s):0
Sky conditions: overcast
Temperature: 74.5 F (23.6 C)
Dew Point: 70.0 F (21.1 C)
Relative Humidity: 85%
Pressure (altimeter): 30.08 in. Hg (1018 hPa)
ob: KMMT 270656Z AUTO 00000KT 10SM OVC160 24/21 A3008 RMK AO2 SLP186 T02360211
cycle: 7

Station Type Date Time Source
KMMT TAF 2022/06/27 07:25 UTC NOAA

TAF KMMT 270700Z 2707/2813 VRB06KT 8000 BR FEW040 QNH3002INS
BECMG 2804/2805 VRB06KT 9000 -SHRA FEW030 QNH3007INS
BECMG 2812/2813 VRB06KT 4800 -SHRA BKN003 QNH3014INS TX32/2721Z TN22/2710Z

Example: see airport list